sensor_id;sensor_type;location;lat;lon;timestamp;P1;durP1;ratioP1;P2;durP2;ratioP2
38805;SDS011;25635;51.146;17.162;2022-10-30T00:00:35;31.35;;;20.27;;
38805;SDS011;25635;51.146;17.162;2022-10-30T00:03:03;28.62;;;20.30;;
38805;SDS011;25635;51.146;17.162;2022-10-30T00:05:30;30.50;;;20.17;;
38805;SDS011;25635;51.146;17.162;2022-10-30T00:07:57;28.62;;;18.82;;
38805;SDS011;25635;51.146;17.162;2022-10-30T00:10:23;27.48;;;17.90;;
38805;SDS011;25635;51.146;17.162;2022-10-30T00:12:50;29.80;;;18.25;;
38805;SDS011;25635;51.146;17.162;2022-10-30T00:15:17;28.40;;;18.77;;
38805;SDS011;25635;51.146;17.162;2022-10-30T00:17:43;26.82;;;17.70;;
38805;SDS011;25635;51.146;17.162;2022-10-30T00:20:10;28.02;;;18.02;;
38805;SDS011;25635;51.146;17.162;2022-10-30T00:22:36;27.15;;;18.17;;
38805;SDS011;25635;51.146;17.162;2022-10-30T00:25:03;25.57;;;18.70;;
38805;SDS011;25635;51.146;17.162;2022-10-30T00:27:30;19.77;;;14.28;;
38805;SDS011;25635;51.146;17.162;2022-10-30T00:29:56;22.02;;;15.58;;
38805;SDS011;25635;51.146;17.162;2022-10-30T00:32:22;28.67;;;17.90;;
38805;SDS011;25635;51.146;17.162;2022-10-30T00:34:49;28.20;;;17.55;;
38805;SDS011;25635;51.146;17.162;2022-10-30T00:37:16;26.65;;;18.17;;
38805;SDS011;25635;51.146;17.162;2022-10-30T00:39:42;29.35;;;19.57;;
38805;SDS011;25635;51.146;17.162;2022-10-30T00:42:11;23.80;;;15.23;;
38805;SDS011;25635;51.146;17.162;2022-10-30T00:44:44;27.25;;;18.00;;
38805;SDS011;25635;51.146;17.162;2022-10-30T00:47:19;32.05;;;19.87;;
38805;SDS011;25635;51.146;17.162;2022-10-30T00:50:05;28.02;;;17.85;;
38805;SDS011;25635;51.146;17.162;2022-10-30T00:52:35;29.27;;;19.15;;
38805;SDS011;25635;51.146;17.162;2022-10-30T00:55:12;30.82;;;19.20;;
38805;SDS011;25635;51.146;17.162;2022-10-30T00:57:43;29.10;;;18.77;;
38805;SDS011;25635;51.146;17.162;2022-10-30T01:00:10;29.60;;;19.57;;
38805;SDS011;25635;51.146;17.162;2022-10-30T01:02:38;34.05;;;19.75;;
38805;SDS011;25635;51.146;17.162;2022-10-30T01:05:08;31.25;;;20.30;;
38805;SDS011;25635;51.146;17.162;2022-10-30T01:07:39;31.30;;;20.32;;
38805;SDS011;25635;51.146;17.162;2022-10-30T01:10:06;30.95;;;20.25;;
38805;SDS011;25635;51.146;17.162;2022-10-30T01:12:34;33.13;;;20.25;;
38805;SDS011;25635;51.146;17.162;2022-10-30T01:15:01;33.92;;;22.10;;
38805;SDS011;25635;51.146;17.162;2022-10-30T01:17:32;32.63;;;21.02;;
38805;SDS011;25635;51.146;17.162;2022-10-30T01:31:32;31.48;;;20.27;;
38805;SDS011;25635;51.146;17.162;2022-10-30T01:39:21;32.05;;;19.52;;
38805;SDS011;25635;51.146;17.162;2022-10-30T01:41:49;32.60;;;20.70;;
38805;SDS011;25635;51.146;17.162;2022-10-30T01:44:24;32.50;;;20.92;;
38805;SDS011;25635;51.146;17.162;2022-10-30T02:01:45;30.23;;;19.87;;
38805;SDS011;25635;51.146;17.162;2022-10-30T02:04:13;27.58;;;18.65;;
38805;SDS011;25635;51.146;17.162;2022-10-30T02:06:40;27.70;;;19.02;;
38805;SDS011;25635;51.146;17.162;2022-10-30T02:09:07;31.05;;;19.05;;
38805;SDS011;25635;51.146;17.162;2022-10-30T02:11:34;25.80;;;18.07;;
38805;SDS011;25635;51.146;17.162;2022-10-30T02:14:04;21.37;;;16.37;;
38805;SDS011;25635;51.146;17.162;2022-10-30T02:16:32;27.85;;;17.23;;
38805;SDS011;25635;51.146;17.162;2022-10-30T02:19:03;24.72;;;16.35;;
38805;SDS011;25635;51.146;17.162;2022-10-30T02:21:31;23.77;;;15.70;;
38805;SDS011;25635;51.146;17.162;2022-10-30T02:23:58;23.83;;;15.45;;
38805;SDS011;25635;51.146;17.162;2022-10-30T02:26:24;22.95;;;15.80;;
38805;SDS011;25635;51.146;17.162;2022-10-30T02:28:51;22.15;;;15.20;;
38805;SDS011;25635;51.146;17.162;2022-10-30T02:31:17;22.45;;;15.15;;
38805;SDS011;25635;51.146;17.162;2022-10-30T02:33:47;30.02;;;17.50;;
38805;SDS011;25635;51.146;17.162;2022-10-30T02:36:13;25.23;;;17.67;;
38805;SDS011;25635;51.146;17.162;2022-10-30T02:38:41;24.23;;;17.32;;
38805;SDS011;25635;51.146;17.162;2022-10-30T02:41:09;22.48;;;16.77;;
38805;SDS011;25635;51.146;17.162;2022-10-30T02:43:36;23.10;;;16.20;;
38805;SDS011;25635;51.146;17.162;2022-10-30T02:46:03;23.83;;;16.10;;
38805;SDS011;25635;51.146;17.162;2022-10-30T02:48:30;21.35;;;14.93;;
38805;SDS011;25635;51.146;17.162;2022-10-30T02:50:58;22.17;;;14.28;;
38805;SDS011;25635;51.146;17.162;2022-10-30T02:53:32;26.68;;;15.65;;
38805;SDS011;25635;51.146;17.162;2022-10-30T02:56:06;24.90;;;16.10;;
38805;SDS011;25635;51.146;17.162;2022-10-30T02:58:32;25.05;;;16.95;;
38805;SDS011;25635;51.146;17.162;2022-10-30T03:01:10;29.12;;;18.02;;
38805;SDS011;25635;51.146;17.162;2022-10-30T03:03:42;30.20;;;19.02;;
38805;SDS011;25635;51.146;17.162;2022-10-30T03:06:09;24.92;;;17.65;;
38805;SDS011;25635;51.146;17.162;2022-10-30T03:08:40;24.43;;;14.80;;
38805;SDS011;25635;51.146;17.162;2022-10-30T03:11:14;21.73;;;15.15;;
38805;SDS011;25635;51.146;17.162;2022-10-30T03:13:40;21.77;;;14.75;;
38805;SDS011;25635;51.146;17.162;2022-10-30T03:16:12;22.05;;;14.87;;
38805;SDS011;25635;51.146;17.162;2022-10-30T03:18:42;23.18;;;15.38;;
38805;SDS011;25635;51.146;17.162;2022-10-30T03:21:11;21.95;;;14.05;;
38805;SDS011;25635;51.146;17.162;2022-10-30T03:23:41;21.00;;;14.15;;
38805;SDS011;25635;51.146;17.162;2022-10-30T03:26:07;22.82;;;14.83;;
38805;SDS011;25635;51.146;17.162;2022-10-30T03:28:34;22.52;;;16.05;;
38805;SDS011;25635;51.146;17.162;2022-10-30T03:31:09;22.93;;;15.70;;
38805;SDS011;25635;51.146;17.162;2022-10-30T03:33:39;18.48;;;14.40;;
38805;SDS011;25635;51.146;17.162;2022-10-30T03:36:06;20.82;;;15.13;;
38805;SDS011;25635;51.146;17.162;2022-10-30T03:38:35;21.87;;;13.90;;
38805;SDS011;25635;51.146;17.162;2022-10-30T03:41:01;18.55;;;13.48;;
38805;SDS011;25635;51.146;17.162;2022-10-30T03:43:29;20.35;;;13.95;;
38805;SDS011;25635;51.146;17.162;2022-10-30T03:45:56;19.07;;;13.53;;
38805;SDS011;25635;51.146;17.162;2022-10-30T03:48:23;20.57;;;13.25;;
38805;SDS011;25635;51.146;17.162;2022-10-30T03:50:56;20.62;;;12.63;;
38805;SDS011;25635;51.146;17.162;2022-10-30T03:53:24;24.57;;;14.98;;
38805;SDS011;25635;51.146;17.162;2022-10-30T03:55:56;21.50;;;15.25;;
38805;SDS011;25635;51.146;17.162;2022-10-30T03:58:26;20.00;;;14.80;;
38805;SDS011;25635;51.146;17.162;2022-10-30T04:00:53;21.87;;;15.45;;
38805;SDS011;25635;51.146;17.162;2022-10-30T04:03:26;24.67;;;16.60;;
38805;SDS011;25635;51.146;17.162;2022-10-30T04:05:52;24.07;;;16.00;;
38805;SDS011;25635;51.146;17.162;2022-10-30T04:08:18;20.37;;;13.65;;
38805;SDS011;25635;51.146;17.162;2022-10-30T04:10:45;21.40;;;14.53;;
38805;SDS011;25635;51.146;17.162;2022-10-30T04:13:14;24.95;;;16.30;;
38805;SDS011;25635;51.146;17.162;2022-10-30T04:15:42;25.08;;;16.62;;
38805;SDS011;25635;51.146;17.162;2022-10-30T04:18:09;29.42;;;18.07;;
38805;SDS011;25635;51.146;17.162;2022-10-30T04:20:38;27.30;;;18.07;;
38805;SDS011;25635;51.146;17.162;2022-10-30T04:23:05;26.62;;;17.75;;
38805;SDS011;25635;51.146;17.162;2022-10-30T04:25:34;30.77;;;19.00;;
38805;SDS011;25635;51.146;17.162;2022-10-30T04:28:01;26.17;;;18.30;;
38805;SDS011;25635;51.146;17.162;2022-10-30T04:30:29;26.70;;;16.70;;
38805;SDS011;25635;51.146;17.162;2022-10-30T04:32:57;19.65;;;14.83;;
38805;SDS011;25635;51.146;17.162;2022-10-30T04:35:24;20.00;;;13.40;;
38805;SDS011;25635;51.146;17.162;2022-10-30T04:37:54;19.95;;;12.25;;
38805;SDS011;25635;51.146;17.162;2022-10-30T04:40:23;20.75;;;12.60;;
38805;SDS011;25635;51.146;17.162;2022-10-30T04:42:54;17.57;;;11.25;;
38805;SDS011;25635;51.146;17.162;2022-10-30T04:45:21;17.20;;;11.95;;
38805;SDS011;25635;51.146;17.162;2022-10-30T04:47:47;20.17;;;12.73;;
38805;SDS011;25635;51.146;17.162;2022-10-30T04:50:14;20.55;;;13.72;;
38805;SDS011;25635;51.146;17.162;2022-10-30T04:52:41;18.20;;;12.35;;
38805;SDS011;25635;51.146;17.162;2022-10-30T04:55:08;22.13;;;13.65;;
38805;SDS011;25635;51.146;17.162;2022-10-30T04:57:36;19.42;;;13.08;;
38805;SDS011;25635;51.146;17.162;2022-10-30T05:00:03;19.32;;;12.68;;
38805;SDS011;25635;51.146;17.162;2022-10-30T05:02:35;16.37;;;10.80;;
38805;SDS011;25635;51.146;17.162;2022-10-30T05:05:02;14.75;;;11.12;;
38805;SDS011;25635;51.146;17.162;2022-10-30T05:07:30;16.87;;;10.90;;
38805;SDS011;25635;51.146;17.162;2022-10-30T05:09:56;18.67;;;11.38;;
38805;SDS011;25635;51.146;17.162;2022-10-30T05:12:22;17.52;;;12.05;;
38805;SDS011;25635;51.146;17.162;2022-10-30T05:14:48;17.02;;;11.12;;
38805;SDS011;25635;51.146;17.162;2022-10-30T05:17:14;19.98;;;12.73;;
38805;SDS011;25635;51.146;17.162;2022-10-30T05:19:43;20.57;;;12.93;;
38805;SDS011;25635;51.146;17.162;2022-10-30T05:22:09;22.73;;;13.30;;
38805;SDS011;25635;51.146;17.162;2022-10-30T05:24:35;20.02;;;13.25;;
38805;SDS011;25635;51.146;17.162;2022-10-30T05:27:02;18.80;;;12.33;;
38805;SDS011;25635;51.146;17.162;2022-10-30T05:29:28;19.95;;;12.15;;
38805;SDS011;25635;51.146;17.162;2022-10-30T05:31:54;16.55;;;11.33;;
38805;SDS011;25635;51.146;17.162;2022-10-30T05:34:21;18.82;;;12.47;;
38805;SDS011;25635;51.146;17.162;2022-10-30T05:36:47;18.67;;;12.05;;
38805;SDS011;25635;51.146;17.162;2022-10-30T05:39:14;18.05;;;11.43;;
38805;SDS011;25635;51.146;17.162;2022-10-30T05:41:40;14.35;;;10.48;;
38805;SDS011;25635;51.146;17.162;2022-10-30T05:44:06;16.45;;;11.03;;
38805;SDS011;25635;51.146;17.162;2022-10-30T05:46:33;21.37;;;11.93;;
38805;SDS011;25635;51.146;17.162;2022-10-30T05:48:59;17.07;;;11.95;;
38805;SDS011;25635;51.146;17.162;2022-10-30T05:51:25;17.82;;;11.05;;
38805;SDS011;25635;51.146;17.162;2022-10-30T05:53:52;16.15;;;11.33;;
38805;SDS011;25635;51.146;17.162;2022-10-30T05:56:18;18.50;;;12.03;;
38805;SDS011;25635;51.146;17.162;2022-10-30T05:58:44;16.90;;;11.35;;
38805;SDS011;25635;51.146;17.162;2022-10-30T06:01:16;17.60;;;11.90;;
38805;SDS011;25635;51.146;17.162;2022-10-30T06:03:43;16.73;;;11.48;;
38805;SDS011;25635;51.146;17.162;2022-10-30T06:06:10;16.15;;;10.72;;
38805;SDS011;25635;51.146;17.162;2022-10-30T06:08:37;15.98;;;10.35;;
38805;SDS011;25635;51.146;17.162;2022-10-30T06:11:03;17.73;;;11.25;;
38805;SDS011;25635;51.146;17.162;2022-10-30T06:13:30;19.70;;;12.18;;
38805;SDS011;25635;51.146;17.162;2022-10-30T06:15:56;17.70;;;11.38;;
38805;SDS011;25635;51.146;17.162;2022-10-30T06:18:23;17.80;;;11.88;;
38805;SDS011;25635;51.146;17.162;2022-10-30T06:20:49;18.85;;;12.00;;
38805;SDS011;25635;51.146;17.162;2022-10-30T06:23:15;18.82;;;10.80;;
38805;SDS011;25635;51.146;17.162;2022-10-30T06:25:42;17.70;;;10.95;;
38805;SDS011;25635;51.146;17.162;2022-10-30T06:28:09;17.98;;;11.18;;
38805;SDS011;25635;51.146;17.162;2022-10-30T06:30:36;16.67;;;11.48;;
38805;SDS011;25635;51.146;17.162;2022-10-30T06:33:03;18.55;;;11.40;;
38805;SDS011;25635;51.146;17.162;2022-10-30T06:35:31;15.68;;;11.10;;
38805;SDS011;25635;51.146;17.162;2022-10-30T06:37:58;18.48;;;12.28;;
38805;SDS011;25635;51.146;17.162;2022-10-30T06:40:27;18.70;;;11.97;;
38805;SDS011;25635;51.146;17.162;2022-10-30T06:42:54;17.17;;;11.20;;
38805;SDS011;25635;51.146;17.162;2022-10-30T06:45:21;16.02;;;10.68;;
38805;SDS011;25635;51.146;17.162;2022-10-30T06:47:50;15.58;;;10.65;;
38805;SDS011;25635;51.146;17.162;2022-10-30T06:50:17;15.38;;;11.10;;
38805;SDS011;25635;51.146;17.162;2022-10-30T06:52:45;16.45;;;11.35;;
38805;SDS011;25635;51.146;17.162;2022-10-30T06:55:12;17.73;;;11.43;;
38805;SDS011;25635;51.146;17.162;2022-10-30T06:57:38;20.57;;;12.03;;
38805;SDS011;25635;51.146;17.162;2022-10-30T07:00:06;20.08;;;12.23;;
38805;SDS011;25635;51.146;17.162;2022-10-30T07:02:34;18.17;;;12.75;;
38805;SDS011;25635;51.146;17.162;2022-10-30T07:05:00;20.35;;;13.40;;
38805;SDS011;25635;51.146;17.162;2022-10-30T07:07:28;18.32;;;12.43;;
38805;SDS011;25635;51.146;17.162;2022-10-30T07:09:55;20.75;;;13.58;;
38805;SDS011;25635;51.146;17.162;2022-10-30T07:12:21;21.48;;;13.30;;
38805;SDS011;25635;51.146;17.162;2022-10-30T07:14:47;18.07;;;12.65;;
38805;SDS011;25635;51.146;17.162;2022-10-30T07:17:13;21.10;;;13.40;;
38805;SDS011;25635;51.146;17.162;2022-10-30T07:19:39;20.40;;;12.37;;
38805;SDS011;25635;51.146;17.162;2022-10-30T07:22:06;21.25;;;12.95;;
38805;SDS011;25635;51.146;17.162;2022-10-30T07:24:32;16.93;;;12.50;;
38805;SDS011;25635;51.146;17.162;2022-10-30T07:26:58;21.23;;;13.10;;
38805;SDS011;25635;51.146;17.162;2022-10-30T07:29:25;18.20;;;12.18;;
38805;SDS011;25635;51.146;17.162;2022-10-30T07:31:51;20.70;;;12.60;;
38805;SDS011;25635;51.146;17.162;2022-10-30T07:34:17;20.82;;;12.23;;
38805;SDS011;25635;51.146;17.162;2022-10-30T07:36:44;21.27;;;13.50;;
38805;SDS011;25635;51.146;17.162;2022-10-30T07:39:11;19.60;;;11.95;;
38805;SDS011;25635;51.146;17.162;2022-10-30T07:41:37;25.40;;;14.28;;
38805;SDS011;25635;51.146;17.162;2022-10-30T07:44:04;22.85;;;12.88;;
38805;SDS011;25635;51.146;17.162;2022-10-30T07:46:31;19.67;;;12.50;;
38805;SDS011;25635;51.146;17.162;2022-10-30T07:48:57;18.62;;;12.07;;
38805;SDS011;25635;51.146;17.162;2022-10-30T07:51:23;21.55;;;12.07;;
38805;SDS011;25635;51.146;17.162;2022-10-30T07:53:50;16.93;;;11.88;;
38805;SDS011;25635;51.146;17.162;2022-10-30T07:56:16;17.65;;;11.60;;
38805;SDS011;25635;51.146;17.162;2022-10-30T07:58:42;18.95;;;12.00;;
38805;SDS011;25635;51.146;17.162;2022-10-30T08:01:09;19.82;;;13.40;;
38805;SDS011;25635;51.146;17.162;2022-10-30T08:03:35;17.30;;;11.93;;
38805;SDS011;25635;51.146;17.162;2022-10-30T08:06:01;20.35;;;12.43;;
38805;SDS011;25635;51.146;17.162;2022-10-30T08:08:28;19.67;;;12.35;;
38805;SDS011;25635;51.146;17.162;2022-10-30T08:10:54;18.95;;;12.00;;
38805;SDS011;25635;51.146;17.162;2022-10-30T08:13:21;19.57;;;12.68;;
38805;SDS011;25635;51.146;17.162;2022-10-30T08:15:47;16.73;;;12.25;;
38805;SDS011;25635;51.146;17.162;2022-10-30T08:18:14;19.60;;;12.53;;
38805;SDS011;25635;51.146;17.162;2022-10-30T08:20:41;20.40;;;11.60;;
38805;SDS011;25635;51.146;17.162;2022-10-30T08:23:09;17.82;;;10.68;;
38805;SDS011;25635;51.146;17.162;2022-10-30T08:25:35;17.25;;;10.08;;
38805;SDS011;25635;51.146;17.162;2022-10-30T08:28:04;20.57;;;11.15;;
38805;SDS011;25635;51.146;17.162;2022-10-30T08:30:33;17.00;;;11.25;;
38805;SDS011;25635;51.146;17.162;2022-10-30T08:33:03;15.80;;;10.30;;
38805;SDS011;25635;51.146;17.162;2022-10-30T08:35:31;16.93;;;10.43;;
38805;SDS011;25635;51.146;17.162;2022-10-30T08:37:58;14.35;;;10.05;;
38805;SDS011;25635;51.146;17.162;2022-10-30T08:40:28;15.85;;;10.55;;
38805;SDS011;25635;51.146;17.162;2022-10-30T08:42:56;17.90;;;10.78;;
38805;SDS011;25635;51.146;17.162;2022-10-30T08:45:23;17.12;;;9.88;;
38805;SDS011;25635;51.146;17.162;2022-10-30T08:48:01;15.75;;;11.22;;
38805;SDS011;25635;51.146;17.162;2022-10-30T08:50:30;21.48;;;12.95;;
38805;SDS011;25635;51.146;17.162;2022-10-30T08:53:07;21.85;;;14.63;;
38805;SDS011;25635;51.146;17.162;2022-10-30T08:55:37;25.40;;;19.37;;
38805;SDS011;25635;51.146;17.162;2022-10-30T08:58:03;32.20;;;21.68;;
38805;SDS011;25635;51.146;17.162;2022-10-30T09:00:29;28.65;;;23.47;;
38805;SDS011;25635;51.146;17.162;2022-10-30T09:02:57;26.48;;;18.45;;
38805;SDS011;25635;51.146;17.162;2022-10-30T09:05:23;25.62;;;15.93;;
38805;SDS011;25635;51.146;17.162;2022-10-30T09:07:54;19.70;;;13.48;;
38805;SDS011;25635;51.146;17.162;2022-10-30T09:10:23;16.02;;;12.07;;
38805;SDS011;25635;51.146;17.162;2022-10-30T09:12:53;17.90;;;11.03;;
38805;SDS011;25635;51.146;17.162;2022-10-30T09:15:20;18.35;;;9.68;;
38805;SDS011;25635;51.146;17.162;2022-10-30T09:17:47;13.45;;;9.18;;
38805;SDS011;25635;51.146;17.162;2022-10-30T09:20:21;16.48;;;10.23;;
38805;SDS011;25635;51.146;17.162;2022-10-30T09:22:48;13.15;;;8.63;;
38805;SDS011;25635;51.146;17.162;2022-10-30T09:25:15;17.20;;;9.78;;
38805;SDS011;25635;51.146;17.162;2022-10-30T09:27:41;16.62;;;9.43;;
38805;SDS011;25635;51.146;17.162;2022-10-30T09:30:08;15.43;;;8.60;;
38805;SDS011;25635;51.146;17.162;2022-10-30T09:32:35;14.15;;;8.28;;
38805;SDS011;25635;51.146;17.162;2022-10-30T09:35:01;12.33;;;7.83;;
38805;SDS011;25635;51.146;17.162;2022-10-30T09:37:28;13.25;;;7.30;;
38805;SDS011;25635;51.146;17.162;2022-10-30T09:40:00;16.73;;;7.50;;
38805;SDS011;25635;51.146;17.162;2022-10-30T09:42:42;13.15;;;7.72;;
38805;SDS011;25635;51.146;17.162;2022-10-30T09:56:46;12.33;;;6.75;;
38805;SDS011;25635;51.146;17.162;2022-10-30T10:05:19;11.48;;;6.33;;
38805;SDS011;25635;51.146;17.162;2022-10-30T10:08:18;12.60;;;6.28;;
38805;SDS011;25635;51.146;17.162;2022-10-30T10:10:56;11.55;;;6.22;;
38805;SDS011;25635;51.146;17.162;2022-10-30T10:13:34;12.50;;;6.53;;
38805;SDS011;25635;51.146;17.162;2022-10-30T10:18:49;11.28;;;6.10;;
38805;SDS011;25635;51.146;17.162;2022-10-30T10:21:26;14.28;;;6.42;;
38805;SDS011;25635;51.146;17.162;2022-10-30T10:24:01;10.78;;;6.03;;
38805;SDS011;25635;51.146;17.162;2022-10-30T10:26:47;13.20;;;7.22;;
38805;SDS011;25635;51.146;17.162;2022-10-30T10:32:44;13.95;;;9.93;;
38805;SDS011;25635;51.146;17.162;2022-10-30T10:38:22;16.17;;;9.58;;
38805;SDS011;25635;51.146;17.162;2022-10-30T10:44:33;18.27;;;7.70;;
38805;SDS011;25635;51.146;17.162;2022-10-30T10:49:55;11.28;;;6.12;;
38805;SDS011;25635;51.146;17.162;2022-10-30T10:52:52;13.03;;;6.37;;
38805;SDS011;25635;51.146;17.162;2022-10-30T10:55:24;12.37;;;6.80;;
38805;SDS011;25635;51.146;17.162;2022-10-30T10:57:53;11.85;;;6.08;;
38805;SDS011;25635;51.146;17.162;2022-10-30T11:00:25;13.40;;;6.30;;
38805;SDS011;25635;51.146;17.162;2022-10-30T11:05:45;11.10;;;5.30;;
38805;SDS011;25635;51.146;17.162;2022-10-30T11:08:29;11.18;;;5.10;;
38805;SDS011;25635;51.146;17.162;2022-10-30T11:10:59;12.88;;;5.22;;
38805;SDS011;25635;51.146;17.162;2022-10-30T11:13:39;12.30;;;5.37;;
38805;SDS011;25635;51.146;17.162;2022-10-30T11:18:50;9.95;;;5.22;;
38805;SDS011;25635;51.146;17.162;2022-10-30T11:21:21;11.85;;;5.20;;
38805;SDS011;25635;51.146;17.162;2022-10-30T11:23:51;9.98;;;5.10;;
38805;SDS011;25635;51.146;17.162;2022-10-30T11:28:51;14.03;;;5.45;;
38805;SDS011;25635;51.146;17.162;2022-10-30T11:31:24;13.90;;;6.60;;
38805;SDS011;25635;51.146;17.162;2022-10-30T11:36:47;13.70;;;7.05;;
38805;SDS011;25635;51.146;17.162;2022-10-30T11:39:20;13.62;;;6.12;;
38805;SDS011;25635;51.146;17.162;2022-10-30T11:42:00;12.25;;;6.92;;
38805;SDS011;25635;51.146;17.162;2022-10-30T11:44:40;23.62;;;6.40;;
38805;SDS011;25635;51.146;17.162;2022-10-30T11:47:16;13.32;;;5.92;;
38805;SDS011;25635;51.146;17.162;2022-10-30T11:49:51;9.08;;;4.97;;
38805;SDS011;25635;51.146;17.162;2022-10-30T11:52:25;12.10;;;5.12;;
38805;SDS011;25635;51.146;17.162;2022-10-30T11:55:00;12.05;;;4.78;;
38805;SDS011;25635;51.146;17.162;2022-10-30T11:57:47;10.13;;;4.85;;
38805;SDS011;25635;51.146;17.162;2022-10-30T12:00:20;9.38;;;4.70;;
38805;SDS011;25635;51.146;17.162;2022-10-30T12:02:54;13.40;;;4.85;;
38805;SDS011;25635;51.146;17.162;2022-10-30T12:10:43;10.20;;;4.75;;
38805;SDS011;25635;51.146;17.162;2022-10-30T12:13:23;11.45;;;4.83;;
38805;SDS011;25635;51.146;17.162;2022-10-30T12:16:08;12.68;;;4.60;;
38805;SDS011;25635;51.146;17.162;2022-10-30T12:18:41;9.85;;;4.30;;
38805;SDS011;25635;51.146;17.162;2022-10-30T12:21:28;12.47;;;5.05;;
38805;SDS011;25635;51.146;17.162;2022-10-30T12:24:03;10.95;;;4.95;;
38805;SDS011;25635;51.146;17.162;2022-10-30T12:26:33;11.57;;;4.22;;
38805;SDS011;25635;51.146;17.162;2022-10-30T12:29:03;14.35;;;4.20;;
38805;SDS011;25635;51.146;17.162;2022-10-30T12:31:45;10.75;;;4.37;;
38805;SDS011;25635;51.146;17.162;2022-10-30T12:34:32;11.43;;;4.10;;
38805;SDS011;25635;51.146;17.162;2022-10-30T12:37:25;9.03;;;3.58;;
38805;SDS011;25635;51.146;17.162;2022-10-30T12:40:00;9.25;;;3.75;;
38805;SDS011;25635;51.146;17.162;2022-10-30T12:45:31;8.55;;;3.70;;
38805;SDS011;25635;51.146;17.162;2022-10-30T12:48:54;8.38;;;3.95;;
38805;SDS011;25635;51.146;17.162;2022-10-30T12:53:59;9.43;;;3.83;;
38805;SDS011;25635;51.146;17.162;2022-10-30T12:56:35;8.90;;;3.75;;
38805;SDS011;25635;51.146;17.162;2022-10-30T13:04:43;10.60;;;3.70;;
38805;SDS011;25635;51.146;17.162;2022-10-30T13:07:25;10.80;;;4.20;;
38805;SDS011;25635;51.146;17.162;2022-10-30T13:13:34;7.10;;;3.80;;
38805;SDS011;25635;51.146;17.162;2022-10-30T13:16:01;9.53;;;4.10;;
38805;SDS011;25635;51.146;17.162;2022-10-30T13:18:38;9.93;;;3.75;;
38805;SDS011;25635;51.146;17.162;2022-10-30T13:24:01;8.40;;;3.92;;
38805;SDS011;25635;51.146;17.162;2022-10-30T13:26:48;9.93;;;4.15;;
38805;SDS011;25635;51.146;17.162;2022-10-30T13:29:39;12.10;;;3.92;;
38805;SDS011;25635;51.146;17.162;2022-10-30T13:41:05;9.23;;;3.80;;
38805;SDS011;25635;51.146;17.162;2022-10-30T13:50:05;11.00;;;4.05;;
38805;SDS011;25635;51.146;17.162;2022-10-30T13:52:49;10.50;;;4.42;;
38805;SDS011;25635;51.146;17.162;2022-10-30T13:55:26;12.10;;;4.22;;
38805;SDS011;25635;51.146;17.162;2022-10-30T13:58:00;13.50;;;4.42;;
38805;SDS011;25635;51.146;17.162;2022-10-30T14:06:41;13.30;;;4.50;;
38805;SDS011;25635;51.146;17.162;2022-10-30T14:12:43;11.70;;;4.28;;
38805;SDS011;25635;51.146;17.162;2022-10-30T14:15:32;12.25;;;4.37;;
38805;SDS011;25635;51.146;17.162;2022-10-30T14:20:50;9.03;;;3.77;;
38805;SDS011;25635;51.146;17.162;2022-10-30T14:23:28;9.48;;;4.00;;
38805;SDS011;25635;51.146;17.162;2022-10-30T14:28:43;13.70;;;4.03;;
38805;SDS011;25635;51.146;17.162;2022-10-30T14:31:13;8.68;;;3.60;;
38805;SDS011;25635;51.146;17.162;2022-10-30T14:50:30;10.23;;;4.20;;
38805;SDS011;25635;51.146;17.162;2022-10-30T14:59:08;14.68;;;6.08;;
38805;SDS011;25635;51.146;17.162;2022-10-30T15:07:25;11.38;;;5.00;;
38805;SDS011;25635;51.146;17.162;2022-10-30T15:10:05;12.15;;;5.65;;
38805;SDS011;25635;51.146;17.162;2022-10-30T15:13:05;12.93;;;5.97;;
38805;SDS011;25635;51.146;17.162;2022-10-30T15:15:41;13.48;;;6.85;;
38805;SDS011;25635;51.146;17.162;2022-10-30T15:18:17;12.68;;;6.10;;
38805;SDS011;25635;51.146;17.162;2022-10-30T15:20:49;19.98;;;9.63;;
38805;SDS011;25635;51.146;17.162;2022-10-30T15:23:21;15.63;;;6.92;;
38805;SDS011;25635;51.146;17.162;2022-10-30T15:26:01;15.28;;;7.55;;
38805;SDS011;25635;51.146;17.162;2022-10-30T15:28:35;14.45;;;8.60;;
38805;SDS011;25635;51.146;17.162;2022-10-30T15:31:13;13.95;;;7.20;;
38805;SDS011;25635;51.146;17.162;2022-10-30T15:33:52;12.00;;;6.37;;
38805;SDS011;25635;51.146;17.162;2022-10-30T15:36:20;13.28;;;5.45;;
38805;SDS011;25635;51.146;17.162;2022-10-30T15:39:07;14.68;;;5.72;;
38805;SDS011;25635;51.146;17.162;2022-10-30T15:41:55;10.95;;;4.83;;
38805;SDS011;25635;51.146;17.162;2022-10-30T15:44:25;13.13;;;5.75;;
38805;SDS011;25635;51.146;17.162;2022-10-30T15:46:58;12.13;;;4.67;;
38805;SDS011;25635;51.146;17.162;2022-10-30T15:49:31;11.50;;;4.80;;
38805;SDS011;25635;51.146;17.162;2022-10-30T15:52:02;10.40;;;4.97;;
38805;SDS011;25635;51.146;17.162;2022-10-30T15:54:47;12.07;;;5.10;;
38805;SDS011;25635;51.146;17.162;2022-10-30T15:57:28;12.28;;;4.92;;
38805;SDS011;25635;51.146;17.162;2022-10-30T15:59:58;12.45;;;5.22;;
38805;SDS011;25635;51.146;17.162;2022-10-30T16:02:31;15.32;;;4.90;;
38805;SDS011;25635;51.146;17.162;2022-10-30T16:05:00;12.20;;;4.40;;
38805;SDS011;25635;51.146;17.162;2022-10-30T16:07:27;13.03;;;5.08;;
38805;SDS011;25635;51.146;17.162;2022-10-30T16:09:56;10.60;;;4.47;;
38805;SDS011;25635;51.146;17.162;2022-10-30T16:12:30;14.35;;;4.53;;
38805;SDS011;25635;51.146;17.162;2022-10-30T16:15:01;14.35;;;5.05;;
38805;SDS011;25635;51.146;17.162;2022-10-30T16:17:32;15.98;;;5.30;;
38805;SDS011;25635;51.146;17.162;2022-10-30T16:20:00;10.13;;;5.35;;
38805;SDS011;25635;51.146;17.162;2022-10-30T16:22:32;11.83;;;4.83;;
38805;SDS011;25635;51.146;17.162;2022-10-30T16:25:01;14.70;;;5.33;;
38805;SDS011;25635;51.146;17.162;2022-10-30T16:27:36;12.28;;;5.15;;
38805;SDS011;25635;51.146;17.162;2022-10-30T16:30:14;12.95;;;5.08;;
38805;SDS011;25635;51.146;17.162;2022-10-30T16:32:40;12.23;;;5.28;;
38805;SDS011;25635;51.146;17.162;2022-10-30T16:35:12;11.78;;;4.80;;
38805;SDS011;25635;51.146;17.162;2022-10-30T16:37:39;10.90;;;5.15;;
38805;SDS011;25635;51.146;17.162;2022-10-30T16:40:10;12.37;;;5.60;;
38805;SDS011;25635;51.146;17.162;2022-10-30T16:42:51;13.00;;;5.30;;
38805;SDS011;25635;51.146;17.162;2022-10-30T16:48:05;12.68;;;5.90;;
38805;SDS011;25635;51.146;17.162;2022-10-30T16:50:36;10.58;;;5.58;;
38805;SDS011;25635;51.146;17.162;2022-10-30T16:53:04;13.43;;;6.62;;
38805;SDS011;25635;51.146;17.162;2022-10-30T16:55:35;12.28;;;6.62;;
38805;SDS011;25635;51.146;17.162;2022-10-30T16:58:03;12.10;;;5.70;;
38805;SDS011;25635;51.146;17.162;2022-10-30T17:00:29;10.70;;;5.70;;
38805;SDS011;25635;51.146;17.162;2022-10-30T17:02:56;13.10;;;6.40;;
38805;SDS011;25635;51.146;17.162;2022-10-30T17:05:25;10.08;;;5.58;;
38805;SDS011;25635;51.146;17.162;2022-10-30T17:10:59;11.48;;;6.47;;
38805;SDS011;25635;51.146;17.162;2022-10-30T17:16:20;12.80;;;7.03;;
38805;SDS011;25635;51.146;17.162;2022-10-30T17:18:57;12.65;;;6.60;;